sensor_id;sensor_type;location;lat;lon;timestamp;P1;durP1;ratioP1;P2;durP2;ratioP2
13028;SDS011;6581;42.662;23.402;2022-11-14T00:01:06;60.63;;;36.37;;
13028;SDS011;6581;42.662;23.402;2022-11-14T00:03:53;57.23;;;37.60;;
13028;SDS011;6581;42.662;23.402;2022-11-14T00:06:40;75.93;;;40.47;;
13028;SDS011;6581;42.662;23.402;2022-11-14T00:09:27;90.90;;;41.77;;
13028;SDS011;6581;42.662;23.402;2022-11-14T00:12:14;183.33;;;44.67;;
13028;SDS011;6581;42.662;23.402;2022-11-14T00:15:00;163.83;;;46.20;;
13028;SDS011;6581;42.662;23.402;2022-11-14T00:17:46;83.50;;;42.23;;
13028;SDS011;6581;42.662;23.402;2022-11-14T00:20:32;74.90;;;41.87;;
13028;SDS011;6581;42.662;23.402;2022-11-14T00:23:19;70.67;;;40.23;;
13028;SDS011;6581;42.662;23.402;2022-11-14T00:26:06;94.43;;;43.37;;
13028;SDS011;6581;42.662;23.402;2022-11-14T00:28:52;91.83;;;39.60;;
13028;SDS011;6581;42.662;23.402;2022-11-14T00:31:38;105.37;;;37.83;;
13028;SDS011;6581;42.662;23.402;2022-11-14T00:34:23;100.03;;;39.63;;
13028;SDS011;6581;42.662;23.402;2022-11-14T00:37:09;177.03;;;43.43;;
13028;SDS011;6581;42.662;23.402;2022-11-14T00:39:56;89.03;;;40.73;;
13028;SDS011;6581;42.662;23.402;2022-11-14T00:42:42;76.13;;;40.67;;
13028;SDS011;6581;42.662;23.402;2022-11-14T00:45:27;71.33;;;39.80;;
13028;SDS011;6581;42.662;23.402;2022-11-14T00:48:13;72.90;;;40.57;;
13028;SDS011;6581;42.662;23.402;2022-11-14T00:50:59;78.07;;;41.40;;
13028;SDS011;6581;42.662;23.402;2022-11-14T00:53:45;72.30;;;40.73;;
13028;SDS011;6581;42.662;23.402;2022-11-14T00:56:31;70.00;;;38.80;;
13028;SDS011;6581;42.662;23.402;2022-11-14T00:59:17;69.90;;;38.13;;
13028;SDS011;6581;42.662;23.402;2022-11-14T01:02:03;98.83;;;49.93;;
13028;SDS011;6581;42.662;23.402;2022-11-14T01:04:48;76.10;;;42.53;;
13028;SDS011;6581;42.662;23.402;2022-11-14T01:07:34;77.93;;;41.33;;
13028;SDS011;6581;42.662;23.402;2022-11-14T01:10:26;70.03;;;40.50;;
13028;SDS011;6581;42.662;23.402;2022-11-14T01:13:14;72.90;;;41.63;;
13028;SDS011;6581;42.662;23.402;2022-11-14T01:16:00;70.87;;;41.30;;
13028;SDS011;6581;42.662;23.402;2022-11-14T01:18:46;67.03;;;41.07;;
13028;SDS011;6581;42.662;23.402;2022-11-14T01:21:32;68.47;;;39.17;;
13028;SDS011;6581;42.662;23.402;2022-11-14T01:24:18;66.80;;;39.10;;
13028;SDS011;6581;42.662;23.402;2022-11-14T01:27:04;73.20;;;41.60;;
13028;SDS011;6581;42.662;23.402;2022-11-14T01:29:51;67.77;;;39.40;;
13028;SDS011;6581;42.662;23.402;2022-11-14T01:32:36;64.33;;;37.43;;
13028;SDS011;6581;42.662;23.402;2022-11-14T01:35:22;67.13;;;40.07;;
13028;SDS011;6581;42.662;23.402;2022-11-14T01:38:11;69.03;;;40.97;;
13028;SDS011;6581;42.662;23.402;2022-11-14T01:40:58;62.23;;;38.03;;
13028;SDS011;6581;42.662;23.402;2022-11-14T01:43:45;71.10;;;40.77;;
13028;SDS011;6581;42.662;23.402;2022-11-14T01:46:32;65.53;;;38.50;;
13028;SDS011;6581;42.662;23.402;2022-11-14T01:49:21;64.43;;;39.37;;
13028;SDS011;6581;42.662;23.402;2022-11-14T01:52:11;63.50;;;38.40;;
13028;SDS011;6581;42.662;23.402;2022-11-14T01:55:00;58.17;;;35.43;;
13028;SDS011;6581;42.662;23.402;2022-11-14T01:57:49;61.53;;;34.67;;
13028;SDS011;6581;42.662;23.402;2022-11-14T02:00:35;60.60;;;33.90;;
13028;SDS011;6581;42.662;23.402;2022-11-14T02:03:23;133.03;;;37.47;;
13028;SDS011;6581;42.662;23.402;2022-11-14T02:06:09;92.57;;;37.03;;
13028;SDS011;6581;42.662;23.402;2022-11-14T02:08:58;160.97;;;36.60;;
13028;SDS011;6581;42.662;23.402;2022-11-14T02:11:46;178.53;;;37.50;;
13028;SDS011;6581;42.662;23.402;2022-11-14T02:14:33;131.33;;;36.00;;
13028;SDS011;6581;42.662;23.402;2022-11-14T02:17:21;195.77;;;37.10;;
13028;SDS011;6581;42.662;23.402;2022-11-14T02:20:20;192.70;;;38.70;;
13028;SDS011;6581;42.662;23.402;2022-11-14T02:23:06;114.97;;;36.70;;
13028;SDS011;6581;42.662;23.402;2022-11-14T02:25:52;153.53;;;35.53;;
13028;SDS011;6581;42.662;23.402;2022-11-14T02:28:38;299.57;;;38.93;;
13028;SDS011;6581;42.662;23.402;2022-11-14T02:31:24;333.53;;;39.60;;
13028;SDS011;6581;42.662;23.402;2022-11-14T02:34:10;176.70;;;36.17;;
13028;SDS011;6581;42.662;23.402;2022-11-14T02:36:56;290.47;;;37.63;;
13028;SDS011;6581;42.662;23.402;2022-11-14T02:39:43;127.73;;;35.33;;
13028;SDS011;6581;42.662;23.402;2022-11-14T02:42:28;150.33;;;37.57;;
13028;SDS011;6581;42.662;23.402;2022-11-14T02:45:14;101.30;;;36.47;;
13028;SDS011;6581;42.662;23.402;2022-11-14T02:48:00;117.37;;;35.80;;
13028;SDS011;6581;42.662;23.402;2022-11-14T02:50:47;103.17;;;31.80;;
13028;SDS011;6581;42.662;23.402;2022-11-14T02:53:34;129.40;;;30.20;;
13028;SDS011;6581;42.662;23.402;2022-11-14T02:56:20;128.97;;;31.40;;
13028;SDS011;6581;42.662;23.402;2022-11-14T02:59:05;143.27;;;30.57;;
13028;SDS011;6581;42.662;23.402;2022-11-14T03:01:51;90.63;;;30.63;;
13028;SDS011;6581;42.662;23.402;2022-11-14T03:04:37;132.53;;;31.37;;
13028;SDS011;6581;42.662;23.402;2022-11-14T03:07:22;125.93;;;32.60;;
13028;SDS011;6581;42.662;23.402;2022-11-14T03:10:09;111.80;;;35.33;;
13028;SDS011;6581;42.662;23.402;2022-11-14T03:12:56;153.23;;;33.30;;
13028;SDS011;6581;42.662;23.402;2022-11-14T03:15:42;121.27;;;31.97;;
13028;SDS011;6581;42.662;23.402;2022-11-14T03:18:28;105.90;;;31.33;;
13028;SDS011;6581;42.662;23.402;2022-11-14T03:21:14;100.67;;;30.87;;
13028;SDS011;6581;42.662;23.402;2022-11-14T03:24:02;136.03;;;27.07;;
13028;SDS011;6581;42.662;23.402;2022-11-14T03:26:49;164.53;;;28.23;;
13028;SDS011;6581;42.662;23.402;2022-11-14T03:29:34;124.87;;;24.53;;
13028;SDS011;6581;42.662;23.402;2022-11-14T03:32:20;170.53;;;25.23;;
13028;SDS011;6581;42.662;23.402;2022-11-14T03:35:06;143.70;;;24.80;;
13028;SDS011;6581;42.662;23.402;2022-11-14T03:37:53;155.13;;;25.37;;
13028;SDS011;6581;42.662;23.402;2022-11-14T03:40:39;113.43;;;24.47;;
13028;SDS011;6581;42.662;23.402;2022-11-14T03:43:29;161.07;;;25.23;;
13028;SDS011;6581;42.662;23.402;2022-11-14T03:46:16;105.30;;;25.37;;
13028;SDS011;6581;42.662;23.402;2022-11-14T03:49:02;163.03;;;27.03;;
13028;SDS011;6581;42.662;23.402;2022-11-14T03:51:48;105.57;;;25.10;;
13028;SDS011;6581;42.662;23.402;2022-11-14T03:54:34;138.10;;;25.17;;
13028;SDS011;6581;42.662;23.402;2022-11-14T03:57:20;68.50;;;24.70;;
13028;SDS011;6581;42.662;23.402;2022-11-14T04:00:08;98.57;;;25.07;;
13028;SDS011;6581;42.662;23.402;2022-11-14T04:02:54;91.70;;;26.27;;
13028;SDS011;6581;42.662;23.402;2022-11-14T04:05:43;68.47;;;24.67;;
13028;SDS011;6581;42.662;23.402;2022-11-14T04:08:29;83.77;;;23.70;;
13028;SDS011;6581;42.662;23.402;2022-11-14T04:11:15;93.17;;;25.23;;
13028;SDS011;6581;42.662;23.402;2022-11-14T04:14:01;95.40;;;23.07;;
13028;SDS011;6581;42.662;23.402;2022-11-14T04:16:48;52.90;;;23.63;;
13028;SDS011;6581;42.662;23.402;2022-11-14T04:19:34;79.90;;;22.97;;
13028;SDS011;6581;42.662;23.402;2022-11-14T04:22:20;64.27;;;22.87;;
13028;SDS011;6581;42.662;23.402;2022-11-14T04:25:08;56.87;;;22.73;;
13028;SDS011;6581;42.662;23.402;2022-11-14T04:27:54;68.90;;;24.27;;
13028;SDS011;6581;42.662;23.402;2022-11-14T04:30:40;52.67;;;23.93;;
13028;SDS011;6581;42.662;23.402;2022-11-14T04:33:29;94.93;;;26.23;;
13028;SDS011;6581;42.662;23.402;2022-11-14T04:36:15;96.97;;;25.20;;
13028;SDS011;6581;42.662;23.402;2022-11-14T04:39:00;104.67;;;26.30;;
13028;SDS011;6581;42.662;23.402;2022-11-14T04:41:46;88.90;;;26.27;;
13028;SDS011;6581;42.662;23.402;2022-11-14T04:44:31;98.53;;;25.33;;
13028;SDS011;6581;42.662;23.402;2022-11-14T04:47:17;95.63;;;28.07;;
13028;SDS011;6581;42.662;23.402;2022-11-14T04:50:04;94.03;;;26.07;;
13028;SDS011;6581;42.662;23.402;2022-11-14T04:52:51;124.70;;;26.73;;
13028;SDS011;6581;42.662;23.402;2022-11-14T04:55:37;127.00;;;26.03;;
13028;SDS011;6581;42.662;23.402;2022-11-14T04:58:23;65.80;;;24.57;;
13028;SDS011;6581;42.662;23.402;2022-11-14T05:01:10;98.93;;;25.93;;
13028;SDS011;6581;42.662;23.402;2022-11-14T05:04:03;82.80;;;25.23;;
13028;SDS011;6581;42.662;23.402;2022-11-14T05:06:51;72.77;;;25.53;;
13028;SDS011;6581;42.662;23.402;2022-11-14T05:09:37;99.23;;;26.67;;
13028;SDS011;6581;42.662;23.402;2022-11-14T05:12:22;75.43;;;30.43;;
13028;SDS011;6581;42.662;23.402;2022-11-14T05:15:09;89.27;;;28.33;;
13028;SDS011;6581;42.662;23.402;2022-11-14T05:18:00;59.77;;;27.10;;
13028;SDS011;6581;42.662;23.402;2022-11-14T05:20:47;99.07;;;29.90;;
13028;SDS011;6581;42.662;23.402;2022-11-14T05:23:34;99.03;;;31.93;;
13028;SDS011;6581;42.662;23.402;2022-11-14T05:26:20;104.63;;;31.27;;
13028;SDS011;6581;42.662;23.402;2022-11-14T05:29:05;80.40;;;27.80;;
13028;SDS011;6581;42.662;23.402;2022-11-14T05:31:50;94.23;;;27.83;;
13028;SDS011;6581;42.662;23.402;2022-11-14T05:34:36;85.37;;;21.97;;
13028;SDS011;6581;42.662;23.402;2022-11-14T05:37:22;69.67;;;23.70;;
13028;SDS011;6581;42.662;23.402;2022-11-14T05:40:10;98.07;;;24.80;;
13028;SDS011;6581;42.662;23.402;2022-11-14T05:42:59;94.47;;;28.67;;
13028;SDS011;6581;42.662;23.402;2022-11-14T05:45:45;98.10;;;25.77;;
13028;SDS011;6581;42.662;23.402;2022-11-14T05:51:42;115.17;;;25.40;;
13028;SDS011;6581;42.662;23.402;2022-11-14T05:54:27;95.37;;;25.07;;
13028;SDS011;6581;42.662;23.402;2022-11-14T05:57:14;100.37;;;26.67;;
13028;SDS011;6581;42.662;23.402;2022-11-14T06:00:00;121.53;;;26.93;;
13028;SDS011;6581;42.662;23.402;2022-11-14T06:02:46;65.20;;;24.73;;
13028;SDS011;6581;42.662;23.402;2022-11-14T06:05:47;54.80;;;21.90;;
13028;SDS011;6581;42.662;23.402;2022-11-14T06:08:33;68.70;;;22.50;;
13028;SDS011;6581;42.662;23.402;2022-11-14T06:11:19;57.93;;;22.80;;
13028;SDS011;6581;42.662;23.402;2022-11-14T06:14:07;60.33;;;21.57;;
13028;SDS011;6581;42.662;23.402;2022-11-14T06:16:52;58.23;;;23.07;;
13028;SDS011;6581;42.662;23.402;2022-11-14T06:19:38;78.63;;;23.73;;
13028;SDS011;6581;42.662;23.402;2022-11-14T06:22:24;67.47;;;23.17;;
13028;SDS011;6581;42.662;23.402;2022-11-14T06:25:09;64.63;;;23.20;;
13028;SDS011;6581;42.662;23.402;2022-11-14T06:28:01;65.23;;;23.50;;
13028;SDS011;6581;42.662;23.402;2022-11-14T06:30:49;72.30;;;22.87;;
13028;SDS011;6581;42.662;23.402;2022-11-14T06:33:35;69.97;;;23.13;;
13028;SDS011;6581;42.662;23.402;2022-11-14T06:36:21;62.87;;;23.03;;
13028;SDS011;6581;42.662;23.402;2022-11-14T06:39:07;47.80;;;23.07;;
13028;SDS011;6581;42.662;23.402;2022-11-14T06:41:53;67.03;;;22.57;;
13028;SDS011;6581;42.662;23.402;2022-11-14T06:44:38;42.57;;;21.67;;
13028;SDS011;6581;42.662;23.402;2022-11-14T06:47:25;33.60;;;19.97;;
13028;SDS011;6581;42.662;23.402;2022-11-14T06:50:11;33.07;;;18.63;;
13028;SDS011;6581;42.662;23.402;2022-11-14T06:52:57;33.90;;;19.43;;
13028;SDS011;6581;42.662;23.402;2022-11-14T06:55:42;31.87;;;19.33;;
13028;SDS011;6581;42.662;23.402;2022-11-14T06:58:29;28.83;;;18.10;;
13028;SDS011;6581;42.662;23.402;2022-11-14T07:01:16;29.60;;;17.60;;
13028;SDS011;6581;42.662;23.402;2022-11-14T07:04:05;30.17;;;18.17;;
13028;SDS011;6581;42.662;23.402;2022-11-14T07:06:50;38.23;;;19.00;;
13028;SDS011;6581;42.662;23.402;2022-11-14T07:09:36;35.87;;;19.83;;
13028;SDS011;6581;42.662;23.402;2022-11-14T07:12:21;33.80;;;19.30;;
13028;SDS011;6581;42.662;23.402;2022-11-14T07:15:07;30.53;;;18.67;;
13028;SDS011;6581;42.662;23.402;2022-11-14T07:17:53;38.83;;;22.77;;
13028;SDS011;6581;42.662;23.402;2022-11-14T07:20:40;40.87;;;24.27;;
13028;SDS011;6581;42.662;23.402;2022-11-14T07:23:26;41.13;;;23.33;;
13028;SDS011;6581;42.662;23.402;2022-11-14T07:26:38;34.63;;;21.40;;
13028;SDS011;6581;42.662;23.402;2022-11-14T07:29:23;37.90;;;23.03;;
13028;SDS011;6581;42.662;23.402;2022-11-14T07:32:08;41.37;;;23.50;;
13028;SDS011;6581;42.662;23.402;2022-11-14T07:34:54;33.67;;;21.00;;
13028;SDS011;6581;42.662;23.402;2022-11-14T07:37:41;29.83;;;19.80;;
13028;SDS011;6581;42.662;23.402;2022-11-14T07:40:27;32.70;;;19.70;;
13028;SDS011;6581;42.662;23.402;2022-11-14T07:43:13;30.67;;;19.10;;
13028;SDS011;6581;42.662;23.402;2022-11-14T07:45:58;32.43;;;19.70;;
13028;SDS011;6581;42.662;23.402;2022-11-14T07:48:44;32.20;;;19.87;;
13028;SDS011;6581;42.662;23.402;2022-11-14T07:51:30;34.43;;;20.23;;
13028;SDS011;6581;42.662;23.402;2022-11-14T07:54:17;33.23;;;21.30;;
13028;SDS011;6581;42.662;23.402;2022-11-14T07:57:03;34.20;;;21.83;;
13028;SDS011;6581;42.662;23.402;2022-11-14T07:59:48;37.77;;;20.97;;
13028;SDS011;6581;42.662;23.402;2022-11-14T08:02:34;31.33;;;20.10;;
13028;SDS011;6581;42.662;23.402;2022-11-14T08:05:19;37.40;;;22.20;;
13028;SDS011;6581;42.662;23.402;2022-11-14T08:08:05;33.93;;;21.20;;
13028;SDS011;6581;42.662;23.402;2022-11-14T08:10:52;32.10;;;20.73;;
13028;SDS011;6581;42.662;23.402;2022-11-14T08:13:40;38.77;;;22.63;;
13028;SDS011;6581;42.662;23.402;2022-11-14T08:16:26;36.30;;;23.53;;
13028;SDS011;6581;42.662;23.402;2022-11-14T08:19:11;41.80;;;24.50;;
13028;SDS011;6581;42.662;23.402;2022-11-14T08:21:59;37.20;;;23.47;;
13028;SDS011;6581;42.662;23.402;2022-11-14T08:24:45;45.27;;;27.70;;
13028;SDS011;6581;42.662;23.402;2022-11-14T08:27:32;57.30;;;33.70;;
13028;SDS011;6581;42.662;23.402;2022-11-14T08:30:17;63.40;;;34.03;;
13028;SDS011;6581;42.662;23.402;2022-11-14T08:33:04;55.43;;;29.83;;
13028;SDS011;6581;42.662;23.402;2022-11-14T08:35:50;69.83;;;33.03;;
13028;SDS011;6581;42.662;23.402;2022-11-14T08:38:36;52.50;;;29.53;;
13028;SDS011;6581;42.662;23.402;2022-11-14T08:41:23;60.23;;;31.80;;
13028;SDS011;6581;42.662;23.402;2022-11-14T08:44:10;52.77;;;28.87;;
13028;SDS011;6581;42.662;23.402;2022-11-14T08:46:55;65.67;;;32.33;;
13028;SDS011;6581;42.662;23.402;2022-11-14T08:49:42;54.83;;;27.70;;
13028;SDS011;6581;42.662;23.402;2022-11-14T08:52:28;51.07;;;29.03;;
13028;SDS011;6581;42.662;23.402;2022-11-14T08:55:14;49.70;;;28.20;;
13028;SDS011;6581;42.662;23.402;2022-11-14T08:58:00;47.40;;;26.30;;
13028;SDS011;6581;42.662;23.402;2022-11-14T09:00:46;46.87;;;26.07;;
13028;SDS011;6581;42.662;23.402;2022-11-14T09:03:32;45.67;;;26.73;;
13028;SDS011;6581;42.662;23.402;2022-11-14T09:06:18;51.50;;;28.93;;
13028;SDS011;6581;42.662;23.402;2022-11-14T09:09:04;48.27;;;27.53;;
13028;SDS011;6581;42.662;23.402;2022-11-14T09:11:49;59.37;;;32.80;;
13028;SDS011;6581;42.662;23.402;2022-11-14T09:14:35;47.73;;;27.13;;
13028;SDS011;6581;42.662;23.402;2022-11-14T09:17:22;54.27;;;33.97;;
13028;SDS011;6581;42.662;23.402;2022-11-14T09:20:07;40.33;;;27.00;;
13028;SDS011;6581;42.662;23.402;2022-11-14T09:22:53;37.00;;;23.13;;
13028;SDS011;6581;42.662;23.402;2022-11-14T09:25:41;35.13;;;22.43;;
13028;SDS011;6581;42.662;23.402;2022-11-14T09:28:27;34.80;;;22.73;;
13028;SDS011;6581;42.662;23.402;2022-11-14T09:31:13;37.97;;;22.90;;
13028;SDS011;6581;42.662;23.402;2022-11-14T09:34:00;34.47;;;22.37;;
13028;SDS011;6581;42.662;23.402;2022-11-14T09:36:46;40.33;;;25.40;;
13028;SDS011;6581;42.662;23.402;2022-11-14T09:39:31;44.27;;;27.90;;
13028;SDS011;6581;42.662;23.402;2022-11-14T09:42:24;42.67;;;27.17;;
13028;SDS011;6581;42.662;23.402;2022-11-14T09:45:23;43.10;;;26.27;;
13028;SDS011;6581;42.662;23.402;2022-11-14T09:48:10;36.27;;;23.67;;
13028;SDS011;6581;42.662;23.402;2022-11-14T09:51:04;36.20;;;23.20;;
13028;SDS011;6581;42.662;23.402;2022-11-14T09:53:55;38.97;;;22.57;;
13028;SDS011;6581;42.662;23.402;2022-11-14T09:56:49;34.80;;;23.10;;
13028;SDS011;6581;42.662;23.402;2022-11-14T09:59:34;33.63;;;22.57;;
13028;SDS011;6581;42.662;23.402;2022-11-14T10:02:26;36.27;;;23.90;;
13028;SDS011;6581;42.662;23.402;2022-11-14T10:05:45;37.20;;;24.33;;
13028;SDS011;6581;42.662;23.402;2022-11-14T10:08:48;40.93;;;25.77;;
13028;SDS011;6581;42.662;23.402;2022-11-14T10:11:43;38.77;;;26.43;;
13028;SDS011;6581;42.662;23.402;2022-11-14T10:14:44;46.13;;;29.63;;
13028;SDS011;6581;42.662;23.402;2022-11-14T10:17:44;44.87;;;30.43;;
13028;SDS011;6581;42.662;23.402;2022-11-14T10:20:41;43.23;;;29.47;;
13028;SDS011;6581;42.662;23.402;2022-11-14T10:23:33;48.50;;;32.40;;
13028;SDS011;6581;42.662;23.402;2022-11-14T10:26:30;44.27;;;28.83;;
13028;SDS011;6581;42.662;23.402;2022-11-14T10:29:33;40.77;;;27.90;;
13028;SDS011;6581;42.662;23.402;2022-11-14T10:32:31;40.23;;;26.87;;
13028;SDS011;6581;42.662;23.402;2022-11-14T10:35:30;41.47;;;26.63;;
13028;SDS011;6581;42.662;23.402;2022-11-14T10:38:23;40.53;;;27.10;;
13028;SDS011;6581;42.662;23.402;2022-11-14T10:41:16;42.93;;;29.47;;
13028;SDS011;6581;42.662;23.402;2022-11-14T10:44:03;41.27;;;26.53;;
13028;SDS011;6581;42.662;23.402;2022-11-14T10:46:56;38.60;;;24.73;;
13028;SDS011;6581;42.662;23.402;2022-11-14T10:49:47;41.83;;;26.03;;
13028;SDS011;6581;42.662;23.402;2022-11-14T10:52:38;45.80;;;26.57;;
13028;SDS011;6581;42.662;23.402;2022-11-14T10:55:27;49.70;;;32.07;;
13028;SDS011;6581;42.662;23.402;2022-11-14T10:58:14;42.57;;;27.13;;
13028;SDS011;6581;42.662;23.402;2022-11-14T11:04:23;44.33;;;28.33;;
13028;SDS011;6581;42.662;23.402;2022-11-14T11:07:18;40.77;;;28.17;;
13028;SDS011;6581;42.662;23.402;2022-11-14T11:10:26;44.83;;;29.63;;
13028;SDS011;6581;42.662;23.402;2022-11-14T11:13:30;44.97;;;31.10;;
13028;SDS011;6581;42.662;23.402;2022-11-14T11:16:18;50.27;;;34.97;;
13028;SDS011;6581;42.662;23.402;2022-11-14T11:19:14;53.40;;;35.30;;
13028;SDS011;6581;42.662;23.402;2022-11-14T11:22:22;51.57;;;35.00;;
13028;SDS011;6581;42.662;23.402;2022-11-14T11:25:23;60.70;;;37.73;;
13028;SDS011;6581;42.662;23.402;2022-11-14T11:28:11;60.57;;;38.63;;
13028;SDS011;6581;42.662;23.402;2022-11-14T11:30:58;52.77;;;35.00;;
13028;SDS011;6581;42.662;23.402;2022-11-14T11:33:45;65.23;;;38.17;;
13028;SDS011;6581;42.662;23.402;2022-11-14T11:36:33;51.33;;;33.97;;
13028;SDS011;6581;42.662;23.402;2022-11-14T11:39:25;50.77;;;33.67;;
13028;SDS011;6581;42.662;23.402;2022-11-14T11:42:13;54.77;;;32.97;;
13028;SDS011;6581;42.662;23.402;2022-11-14T11:45:08;62.97;;;37.80;;
13028;SDS011;6581;42.662;23.402;2022-11-14T11:48:02;57.47;;;36.40;;
13028;SDS011;6581;42.662;23.402;2022-11-14T11:50:59;48.30;;;32.83;;
13028;SDS011;6581;42.662;23.402;2022-11-14T11:53:49;59.67;;;36.20;;
13028;SDS011;6581;42.662;23.402;2022-11-14T11:56:42;55.73;;;37.47;;
13028;SDS011;6581;42.662;23.402;2022-11-14T11:59:32;60.47;;;39.20;;
13028;SDS011;6581;42.662;23.402;2022-11-14T12:02:22;65.10;;;41.70;;
13028;SDS011;6581;42.662;23.402;2022-11-14T12:05:11;56.07;;;34.77;;
13028;SDS011;6581;42.662;23.402;2022-11-14T12:08:00;54.03;;;34.97;;
13028;SDS011;6581;42.662;23.402;2022-11-14T12:10:49;56.57;;;37.47;;
13028;SDS011;6581;42.662;23.402;2022-11-14T12:13:43;55.60;;;36.40;;
13028;SDS011;6581;42.662;23.402;2022-11-14T12:16:53;55.83;;;37.00;;
13028;SDS011;6581;42.662;23.402;2022-11-14T12:20:02;58.28;;;38.30;;
13028;SDS011;6581;42.662;23.402;2022-11-14T12:23:19;50.72;;;35.60;;
13028;SDS011;6581;42.662;23.402;2022-11-14T12:26:38;51.83;;;35.53;;
13028;SDS011;6581;42.662;23.402;2022-11-14T12:29:36;55.38;;;35.70;;
13028;SDS011;6581;42.662;23.402;2022-11-14T12:32:40;47.50;;;33.53;;
13028;SDS011;6581;42.662;23.402;2022-11-14T12:35:30;51.58;;;34.78;;
13028;SDS011;6581;42.662;23.402;2022-11-14T12:38:17;48.83;;;33.92;;
13028;SDS011;6581;42.662;23.402;2022-11-14T12:41:04;53.80;;;34.03;;
13028;SDS011;6581;42.662;23.402;2022-11-14T12:43:53;50.38;;;34.13;;
13028;SDS011;6581;42.662;23.402;2022-11-14T12:47:11;46.65;;;34.08;;
13028;SDS011;6581;42.662;23.402;2022-11-14T12:50:03;48.50;;;31.70;;
13028;SDS011;6581;42.662;23.402;2022-11-14T12:53:05;48.35;;;33.30;;
13028;SDS011;6581;42.662;23.402;2022-11-14T12:56:44;48.33;;;32.22;;
13028;SDS011;6581;42.662;23.402;2022-11-14T12:59:47;47.67;;;31.10;;
13028;SDS011;6581;42.662;23.402;2022-11-14T13:02:53;47.85;;;32.63;;
13028;SDS011;6581;42.662;23.402;2022-11-14T13:06:17;49.33;;;33.17;;
13028;SDS011;6581;42.662;23.402;2022-11-14T13:12:30;46.35;;;32.97;;
13028;SDS011;6581;42.662;23.402;2022-11-14T13:15:44;48.50;;;31.17;;
13028;SDS011;6581;42.662;23.402;2022-11-14T13:18:51;45.47;;;31.00;;
13028;SDS011;6581;42.662;23.402;2022-11-14T13:25:17;48.63;;;31.38;;
13028;SDS011;6581;42.662;23.402;2022-11-14T13:31:43;43.20;;;31.05;;
13028;SDS011;6581;42.662;23.402;2022-11-14T13:34:32;44.70;;;30.35;;
13028;SDS011;6581;42.662;23.402;2022-11-14T13:37:33;44.25;;;29.85;;
13028;SDS011;6581;42.662;23.402;2022-11-14T13:40:32;41.85;;;30.30;;
13028;SDS011;6581;42.662;23.402;2022-11-14T13:43:21;46.63;;;31.98;;
13028;SDS011;6581;42.662;23.402;2022-11-14T13:46:19;42.83;;;30.98;;
13028;SDS011;6581;42.662;23.402;2022-11-14T13:49:31;46.53;;;31.70;;
13028;SDS011;6581;42.662;23.402;2022-11-14T13:52:30;44.88;;;30.20;;
13028;SDS011;6581;42.662;23.402;2022-11-14T13:55:21;46.42;;;31.45;;
13028;SDS011;6581;42.662;23.402;2022-11-14T13:58:16;43.00;;;31.17;;
13028;SDS011;6581;42.662;23.402;2022-11-14T14:01:21;47.30;;;31.85;;
13028;SDS011;6581;42.662;23.402;2022-11-14T14:04:22;51.97;;;32.75;;
13028;SDS011;6581;42.662;23.402;2022-11-14T14:07:26;47.30;;;31.40;;
13028;SDS011;6581;42.662;23.402;2022-11-14T14:10:23;46.65;;;31.45;;
13028;SDS011;6581;42.662;23.402;2022-11-14T14:13:18;52.45;;;33.50;;
13028;SDS011;6581;42.662;23.402;2022-11-14T14:16:15;48.67;;;33.97;;
13028;SDS011;6581;42.662;23.402;2022-11-14T14:19:09;53.05;;;33.30;;
13028;SDS011;6581;42.662;23.402;2022-11-14T14:22:02;50.58;;;33.40;;
13028;SDS011;6581;42.662;23.402;2022-11-14T14:24:54;55.92;;;32.58;;
13028;SDS011;6581;42.662;23.402;2022-11-14T14:27:52;48.95;;;33.60;;
13028;SDS011;6581;42.662;23.402;2022-11-14T14:33:46;59.05;;;37.50;;
13028;SDS011;6581;42.662;23.402;2022-11-14T14:36:33;50.90;;;35.03;;
13028;SDS011;6581;42.662;23.402;2022-11-14T14:39:21;57.72;;;36.45;;
13028;SDS011;6581;42.662;23.402;2022-11-14T14:42:09;56.70;;;36.50;;
13028;SDS011;6581;42.662;23.402;2022-11-14T14:44:56;56.33;;;36.92;;
13028;SDS011;6581;42.662;23.402;2022-11-14T14:47:51;53.08;;;35.55;;
13028;SDS011;6581;42.662;23.402;2022-11-14T14:50:47;58.90;;;37.45;;
13028;SDS011;6581;42.662;23.402;2022-11-14T14:53:34;58.15;;;35.42;;
13028;SDS011;6581;42.662;23.402;2022-11-14T14:56:22;54.53;;;35.75;;
13028;SDS011;6581;42.662;23.402;2022-11-14T14:59:15;57.92;;;35.78;;
13028;SDS011;6581;42.662;23.402;2022-11-14T15:02:02;57.78;;;34.65;;
13028;SDS011;6581;42.662;23.402;2022-11-14T15:04:47;54.33;;;35.55;;
13028;SDS011;6581;42.662;23.402;2022-11-14T15:07:34;54.20;;;35.28;;
13028;SDS011;6581;42.662;23.402;2022-11-14T15:10:24;60.67;;;37.63;;
13028;SDS011;6581;42.662;23.402;2022-11-14T15:13:15;60.70;;;38.47;;
13028;SDS011;6581;42.662;23.402;2022-11-14T15:16:03;53.72;;;35.53;;
13028;SDS011;6581;42.662;23.402;2022-11-14T15:18:51;63.00;;;37.28;;
13028;SDS011;6581;42.662;23.402;2022-11-14T15:21:38;60.85;;;35.85;;
13028;SDS011;6581;42.662;23.402;2022-11-14T15:24:24;56.83;;;36.53;;
13028;SDS011;6581;42.662;23.402;2022-11-14T15:27:11;58.95;;;35.55;;
13028;SDS011;6581;42.662;23.402;2022-11-14T15:29:59;58.43;;;36.00;;
13028;SDS011;6581;42.662;23.402;2022-11-14T15:32:47;57.67;;;37.23;;
13028;SDS011;6581;42.662;23.402;2022-11-14T15:35:34;62.77;;;37.13;;
13028;SDS011;6581;42.662;23.402;2022-11-14T15:38:21;64.97;;;40.17;;
13028;SDS011;6581;42.662;23.402;2022-11-14T15:41:08;62.33;;;38.40;;
13028;SDS011;6581;42.662;23.402;2022-11-14T15:44:00;75.83;;;39.07;;
13028;SDS011;6581;42.662;23.402;2022-11-14T15:46:50;70.23;;;37.60;;
13028;SDS011;6581;42.662;23.402;2022-11-14T15:49:36;65.87;;;38.47;;
13028;SDS011;6581;42.662;23.402;2022-11-14T15:52:22;73.20;;;40.43;;
13028;SDS011;6581;42.662;23.402;2022-11-14T15:55:13;73.17;;;40.07;;
13028;SDS011;6581;42.662;23.402;2022-11-14T15:58:01;69.50;;;40.13;;
13028;SDS011;6581;42.662;23.402;2022-11-14T16:00:47;70.90;;;38.10;;
13028;SDS011;6581;42.662;23.402;2022-11-14T16:03:36;70.97;;;42.93;;
13028;SDS011;6581;42.662;23.402;2022-11-14T16:06:23;76.80;;;43.67;;
13028;SDS011;6581;42.662;23.402;2022-11-14T16:09:12;72.83;;;44.10;;
13028;SDS011;6581;42.662;23.402;2022-11-14T16:11:58;81.77;;;43.00;;
13028;SDS011;6581;42.662;23.402;2022-11-14T16:14:44;80.93;;;43.53;;
13028;SDS011;6581;42.662;23.402;2022-11-14T16:17:33;75.93;;;43.03;;
13028;SDS011;6581;42.662;23.402;2022-11-14T16:20:22;79.00;;;42.27;;
13028;SDS011;6581;42.662;23.402;2022-11-14T16:23:09;73.13;;;41.43;;
13028;SDS011;6581;42.662;23.402;2022-11-14T16:25:56;80.03;;;42.63;;
13028;SDS011;6581;42.662;23.402;2022-11-14T16:28:42;75.27;;;42.60;;
13028;SDS011;6581;42.662;23.402;2022-11-14T16:31:28;85.13;;;46.00;;
13028;SDS011;6581;42.662;23.402;2022-11-14T16:34:15;77.43;;;45.60;;
13028;SDS011;6581;42.662;23.402;2022-11-14T16:37:04;77.47;;;44.20;;
13028;SDS011;6581;42.662;23.402;2022-11-14T16:39:50;77.17;;;43.40;;
13028;SDS011;6581;42.662;23.402;2022-11-14T16:42:36;74.50;;;43.07;;
13028;SDS011;6581;42.662;23.402;2022-11-14T16:45:21;84.53;;;45.97;;
13028;SDS011;6581;42.662;23.402;2022-11-14T16:48:08;83.03;;;44.97;;